logo
Search for airport 
image banner adimage banner adimage banner ad
image banner ad

SGYVYT - Yvytu

Located in San Bernardino, Paraguay

ICAO - , IATA -

Data provided by Airmate  

General information

Coordinates: S25°21'19" W57°15'15"
Elevation is 274 feet MSL.
Magnetic variation is -15° East
View others Airports in Central Department

Operational data

Special qualification required
Current time UTC:
Current local time:
METAR: SGAS 281900Z VRB03KT CAVOK 15/05 Q1025
View NOTAMs / SUP AIP / TFR affecting this airport [VIEW]
Communications frequencies: [VIEW]

Runways:

RWY identifierQFULength (ft)Width (ft)SurfaceLDA (ft)
26245°2736101GRAS
0865°2736101GRAS

Airport contact information

Address: San Bernardino Paraguay

Satellite view of SGYVYT